sensor_id;sensor_type;location;lat;lon;timestamp;temperature;humidity
13336;DHT22;6737;51.480;11.962;2023-12-04T00:01:19;-2.50;99.90
13336;DHT22;6737;51.480;11.962;2023-12-04T00:03:45;-2.50;99.90
13336;DHT22;6737;51.480;11.962;2023-12-04T00:06:11;-2.50;99.90
13336;DHT22;6737;51.480;11.962;2023-12-04T00:08:38;-2.40;99.90
13336;DHT22;6737;51.480;11.962;2023-12-04T00:11:05;-2.40;99.90
13336;DHT22;6737;51.480;11.962;2023-12-04T00:13:30;-2.40;99.90
13336;DHT22;6737;51.480;11.962;2023-12-04T00:15:56;-2.40;99.90
13336;DHT22;6737;51.480;11.962;2023-12-04T00:18:22;-2.30;99.90
13336;DHT22;6737;51.480;11.962;2023-12-04T00:20:48;-2.30;99.90
13336;DHT22;6737;51.480;11.962;2023-12-04T00:23:13;-2.30;99.90
13336;DHT22;6737;51.480;11.962;2023-12-04T00:25:39;-2.40;99.90
13336;DHT22;6737;51.480;11.962;2023-12-04T00:28:05;-2.30;99.90
13336;DHT22;6737;51.480;11.962;2023-12-04T00:30:31;-2.30;99.90
13336;DHT22;6737;51.480;11.962;2023-12-04T00:32:56;-2.30;99.90
13336;DHT22;6737;51.480;11.962;2023-12-04T00:35:22;-2.30;99.90
13336;DHT22;6737;51.480;11.962;2023-12-04T00:37:48;-2.30;99.90
13336;DHT22;6737;51.480;11.962;2023-12-04T00:40:13;-2.40;99.90
13336;DHT22;6737;51.480;11.962;2023-12-04T00:42:39;-2.30;99.90
13336;DHT22;6737;51.480;11.962;2023-12-04T00:45:05;-2.30;99.90
13336;DHT22;6737;51.480;11.962;2023-12-04T00:47:31;-2.30;99.90
13336;DHT22;6737;51.480;11.962;2023-12-04T00:49:57;-2.30;99.90
13336;DHT22;6737;51.480;11.962;2023-12-04T00:52:23;-2.30;99.90
13336;DHT22;6737;51.480;11.962;2023-12-04T00:54:49;-2.30;99.90
13336;DHT22;6737;51.480;11.962;2023-12-04T00:57:14;-2.30;99.90
13336;DHT22;6737;51.480;11.962;2023-12-04T00:59:40;-2.20;99.90
13336;DHT22;6737;51.480;11.962;2023-12-04T01:02:07;-2.20;99.90
13336;DHT22;6737;51.480;11.962;2023-12-04T01:04:33;-2.20;99.90
13336;DHT22;6737;51.480;11.962;2023-12-04T01:06:59;-2.30;99.90
13336;DHT22;6737;51.480;11.962;2023-12-04T01:09:25;-2.30;99.90
13336;DHT22;6737;51.480;11.962;2023-12-04T01:11:54;-2.30;99.90
13336;DHT22;6737;51.480;11.962;2023-12-04T01:14:20;-2.30;99.90
13336;DHT22;6737;51.480;11.962;2023-12-04T01:16:47;-2.20;99.90
13336;DHT22;6737;51.480;11.962;2023-12-04T01:19:13;-2.30;99.90
13336;DHT22;6737;51.480;11.962;2023-12-04T01:21:39;-2.20;99.90
13336;DHT22;6737;51.480;11.962;2023-12-04T01:24:05;-2.30;99.90
13336;DHT22;6737;51.480;11.962;2023-12-04T01:26:31;-2.30;99.90
13336;DHT22;6737;51.480;11.962;2023-12-04T01:28:56;-2.30;99.90
13336;DHT22;6737;51.480;11.962;2023-12-04T01:31:22;-2.30;99.90
13336;DHT22;6737;51.480;11.962;2023-12-04T01:33:48;-2.30;99.90
13336;DHT22;6737;51.480;11.962;2023-12-04T01:36:14;-2.30;99.90
13336;DHT22;6737;51.480;11.962;2023-12-04T01:38:40;-2.20;99.90
13336;DHT22;6737;51.480;11.962;2023-12-04T01:41:05;-2.30;99.90
13336;DHT22;6737;51.480;11.962;2023-12-04T01:43:31;-2.20;99.90
13336;DHT22;6737;51.480;11.962;2023-12-04T01:45:59;-2.20;99.90
13336;DHT22;6737;51.480;11.962;2023-12-04T01:48:27;-2.20;99.90
13336;DHT22;6737;51.480;11.962;2023-12-04T01:50:54;-2.20;99.90
13336;DHT22;6737;51.480;11.962;2023-12-04T01:53:21;-2.20;99.90
13336;DHT22;6737;51.480;11.962;2023-12-04T01:55:47;-2.10;99.90
13336;DHT22;6737;51.480;11.962;2023-12-04T01:58:14;-2.10;99.90
13336;DHT22;6737;51.480;11.962;2023-12-04T02:00:40;-2.10;99.90
13336;DHT22;6737;51.480;11.962;2023-12-04T02:03:06;-2.10;99.90
13336;DHT22;6737;51.480;11.962;2023-12-04T02:05:34;-2.10;99.90
13336;DHT22;6737;51.480;11.962;2023-12-04T02:08:00;-2.10;99.90
13336;DHT22;6737;51.480;11.962;2023-12-04T02:10:26;-2.10;99.90
13336;DHT22;6737;51.480;11.962;2023-12-04T02:12:52;-2.10;99.90
13336;DHT22;6737;51.480;11.962;2023-12-04T02:15:18;-2.00;99.90
13336;DHT22;6737;51.480;11.962;2023-12-04T02:17:44;-2.00;99.90
13336;DHT22;6737;51.480;11.962;2023-12-04T02:20:13;-2.00;99.90
13336;DHT22;6737;51.480;11.962;2023-12-04T02:22:38;-2.10;99.90
13336;DHT22;6737;51.480;11.962;2023-12-04T02:25:05;-2.00;99.90
13336;DHT22;6737;51.480;11.962;2023-12-04T02:27:40;-2.10;99.90
13336;DHT22;6737;51.480;11.962;2023-12-04T02:30:09;-2.00;99.90
13336;DHT22;6737;51.480;11.962;2023-12-04T02:32:41;-2.00;99.90
13336;DHT22;6737;51.480;11.962;2023-12-04T02:35:08;-2.10;99.90
13336;DHT22;6737;51.480;11.962;2023-12-04T02:37:35;-2.10;99.90
13336;DHT22;6737;51.480;11.962;2023-12-04T02:40:01;-2.10;99.90
13336;DHT22;6737;51.480;11.962;2023-12-04T02:42:28;-2.10;99.90
13336;DHT22;6737;51.480;11.962;2023-12-04T02:44:54;-2.10;99.90
13336;DHT22;6737;51.480;11.962;2023-12-04T02:47:19;-2.10;99.90
13336;DHT22;6737;51.480;11.962;2023-12-04T02:49:45;-2.10;99.90
13336;DHT22;6737;51.480;11.962;2023-12-04T02:52:11;-2.00;99.90
13336;DHT22;6737;51.480;11.962;2023-12-04T02:54:37;-2.10;99.90
13336;DHT22;6737;51.480;11.962;2023-12-04T02:57:03;-2.10;99.90
13336;DHT22;6737;51.480;11.962;2023-12-04T02:59:29;-2.00;99.90
13336;DHT22;6737;51.480;11.962;2023-12-04T03:01:54;-2.00;99.90
13336;DHT22;6737;51.480;11.962;2023-12-04T03:04:20;-2.10;99.90
13336;DHT22;6737;51.480;11.962;2023-12-04T03:06:46;-2.00;99.90
13336;DHT22;6737;51.480;11.962;2023-12-04T03:09:12;-2.00;99.90
13336;DHT22;6737;51.480;11.962;2023-12-04T03:11:41;-2.00;99.90
13336;DHT22;6737;51.480;11.962;2023-12-04T03:14:07;-2.00;99.90
13336;DHT22;6737;51.480;11.962;2023-12-04T03:16:33;-2.00;99.90
13336;DHT22;6737;51.480;11.962;2023-12-04T03:18:59;-2.00;99.90
13336;DHT22;6737;51.480;11.962;2023-12-04T03:21:24;-2.00;99.90
13336;DHT22;6737;51.480;11.962;2023-12-04T03:23:50;-2.00;99.90
13336;DHT22;6737;51.480;11.962;2023-12-04T03:26:16;-2.00;99.90
13336;DHT22;6737;51.480;11.962;2023-12-04T03:28:42;-2.00;99.90
13336;DHT22;6737;51.480;11.962;2023-12-04T03:31:08;-1.90;99.90
13336;DHT22;6737;51.480;11.962;2023-12-04T03:33:34;-2.00;99.90
13336;DHT22;6737;51.480;11.962;2023-12-04T03:36:00;-1.90;99.90
13336;DHT22;6737;51.480;11.962;2023-12-04T03:38:26;-1.90;99.90
13336;DHT22;6737;51.480;11.962;2023-12-04T03:40:52;-1.80;99.90
13336;DHT22;6737;51.480;11.962;2023-12-04T03:43:17;-1.80;99.90
13336;DHT22;6737;51.480;11.962;2023-12-04T03:45:43;-1.80;99.90
13336;DHT22;6737;51.480;11.962;2023-12-04T03:48:09;-1.90;99.90
13336;DHT22;6737;51.480;11.962;2023-12-04T03:50:35;-2.10;99.90
13336;DHT22;6737;51.480;11.962;2023-12-04T03:53:02;-1.90;99.90
13336;DHT22;6737;51.480;11.962;2023-12-04T03:55:28;-1.90;99.90
13336;DHT22;6737;51.480;11.962;2023-12-04T03:57:57;-1.80;99.90
13336;DHT22;6737;51.480;11.962;2023-12-04T04:00:23;-1.80;99.90
13336;DHT22;6737;51.480;11.962;2023-12-04T04:02:49;-1.70;99.90
13336;DHT22;6737;51.480;11.962;2023-12-04T04:05:15;-1.80;99.90
13336;DHT22;6737;51.480;11.962;2023-12-04T04:07:41;-1.70;99.90
13336;DHT22;6737;51.480;11.962;2023-12-04T04:10:08;-1.70;99.90
13336;DHT22;6737;51.480;11.962;2023-12-04T04:12:34;-1.70;99.90
13336;DHT22;6737;51.480;11.962;2023-12-04T04:15:00;-1.80;99.90
13336;DHT22;6737;51.480;11.962;2023-12-04T04:17:26;-1.70;99.90
13336;DHT22;6737;51.480;11.962;2023-12-04T04:19:53;-1.70;99.90
13336;DHT22;6737;51.480;11.962;2023-12-04T04:22:23;-1.80;99.90
13336;DHT22;6737;51.480;11.962;2023-12-04T04:24:49;-1.70;99.90
13336;DHT22;6737;51.480;11.962;2023-12-04T04:27:15;-1.70;99.90
13336;DHT22;6737;51.480;11.962;2023-12-04T04:29:41;-1.70;99.90
13336;DHT22;6737;51.480;11.962;2023-12-04T04:32:06;-1.70;99.90
13336;DHT22;6737;51.480;11.962;2023-12-04T04:34:32;-1.70;99.90
13336;DHT22;6737;51.480;11.962;2023-12-04T04:36:58;-1.70;99.90
13336;DHT22;6737;51.480;11.962;2023-12-04T04:39:24;-1.70;99.90
13336;DHT22;6737;51.480;11.962;2023-12-04T04:41:50;-1.60;99.90
13336;DHT22;6737;51.480;11.962;2023-12-04T04:44:15;-1.70;99.90
13336;DHT22;6737;51.480;11.962;2023-12-04T04:46:41;-1.70;99.90
13336;DHT22;6737;51.480;11.962;2023-12-04T04:49:07;-1.70;99.90
13336;DHT22;6737;51.480;11.962;2023-12-04T04:51:33;-1.70;99.90
13336;DHT22;6737;51.480;11.962;2023-12-04T04:54:03;-1.70;99.90
13336;DHT22;6737;51.480;11.962;2023-12-04T04:56:29;-1.70;99.90
13336;DHT22;6737;51.480;11.962;2023-12-04T04:58:55;-1.70;99.90
13336;DHT22;6737;51.480;11.962;2023-12-04T05:01:21;-1.70;99.90
13336;DHT22;6737;51.480;11.962;2023-12-04T05:03:47;-1.60;99.90
13336;DHT22;6737;51.480;11.962;2023-12-04T05:06:14;-1.60;99.90
13336;DHT22;6737;51.480;11.962;2023-12-04T05:08:40;-1.60;99.90
13336;DHT22;6737;51.480;11.962;2023-12-04T05:11:06;-1.60;99.90
13336;DHT22;6737;51.480;11.962;2023-12-04T05:13:31;-1.60;99.90
13336;DHT22;6737;51.480;11.962;2023-12-04T05:15:57;-1.50;99.90
13336;DHT22;6737;51.480;11.962;2023-12-04T05:18:23;-1.50;99.90
13336;DHT22;6737;51.480;11.962;2023-12-04T05:20:48;-1.50;99.90
13336;DHT22;6737;51.480;11.962;2023-12-04T05:23:14;-1.50;99.90
13336;DHT22;6737;51.480;11.962;2023-12-04T05:25:40;-1.60;99.90
13336;DHT22;6737;51.480;11.962;2023-12-04T05:28:06;-1.60;99.90
13336;DHT22;6737;51.480;11.962;2023-12-04T05:30:32;-1.60;99.90
13336;DHT22;6737;51.480;11.962;2023-12-04T05:32:57;-1.60;99.90
13336;DHT22;6737;51.480;11.962;2023-12-04T05:35:23;-1.60;99.90
13336;DHT22;6737;51.480;11.962;2023-12-04T05:37:49;-1.50;99.90
13336;DHT22;6737;51.480;11.962;2023-12-04T05:40:15;-1.50;99.90
13336;DHT22;6737;51.480;11.962;2023-12-04T05:42:41;-1.50;99.90
13336;DHT22;6737;51.480;11.962;2023-12-04T05:45:07;-1.50;99.90
13336;DHT22;6737;51.480;11.962;2023-12-04T05:47:34;-1.40;99.90
13336;DHT22;6737;51.480;11.962;2023-12-04T05:50:00;-1.40;99.90
13336;DHT22;6737;51.480;11.962;2023-12-04T05:52:26;-1.40;99.90
13336;DHT22;6737;51.480;11.962;2023-12-04T05:54:52;-1.40;99.90
13336;DHT22;6737;51.480;11.962;2023-12-04T05:57:17;-1.40;99.90
13336;DHT22;6737;51.480;11.962;2023-12-04T05:59:44;-1.30;99.90
13336;DHT22;6737;51.480;11.962;2023-12-04T06:02:10;-1.40;99.90
13336;DHT22;6737;51.480;11.962;2023-12-04T06:04:35;-1.40;99.90
13336;DHT22;6737;51.480;11.962;2023-12-04T06:07:01;-1.30;99.90
13336;DHT22;6737;51.480;11.962;2023-12-04T06:09:27;-1.30;99.90
13336;DHT22;6737;51.480;11.962;2023-12-04T06:11:53;-1.40;99.90
13336;DHT22;6737;51.480;11.962;2023-12-04T06:14:19;-1.40;99.90
13336;DHT22;6737;51.480;11.962;2023-12-04T06:16:45;-1.40;99.90
13336;DHT22;6737;51.480;11.962;2023-12-04T06:19:10;-1.40;99.90
13336;DHT22;6737;51.480;11.962;2023-12-04T06:21:36;-1.40;99.90
13336;DHT22;6737;51.480;11.962;2023-12-04T06:24:02;-1.40;99.90
13336;DHT22;6737;51.480;11.962;2023-12-04T06:26:30;-1.50;99.90
13336;DHT22;6737;51.480;11.962;2023-12-04T06:28:57;-1.50;99.90
13336;DHT22;6737;51.480;11.962;2023-12-04T06:31:23;-1.40;99.90
13336;DHT22;6737;51.480;11.962;2023-12-04T06:33:49;-1.40;99.90
13336;DHT22;6737;51.480;11.962;2023-12-04T06:36:17;-1.40;99.90
13336;DHT22;6737;51.480;11.962;2023-12-04T06:38:46;-1.40;99.90
13336;DHT22;6737;51.480;11.962;2023-12-04T06:41:13;-1.40;99.90
13336;DHT22;6737;51.480;11.962;2023-12-04T06:43:39;-1.40;99.90
13336;DHT22;6737;51.480;11.962;2023-12-04T06:46:06;-1.40;99.90
13336;DHT22;6737;51.480;11.962;2023-12-04T06:48:32;-1.40;99.90
13336;DHT22;6737;51.480;11.962;2023-12-04T06:50:58;-1.40;99.90
13336;DHT22;6737;51.480;11.962;2023-12-04T06:53:24;-1.40;99.90
13336;DHT22;6737;51.480;11.962;2023-12-04T06:55:50;-1.50;99.90
13336;DHT22;6737;51.480;11.962;2023-12-04T06:58:16;-1.50;99.90
13336;DHT22;6737;51.480;11.962;2023-12-04T07:00:41;-1.50;99.90
13336;DHT22;6737;51.480;11.962;2023-12-04T07:03:07;-1.50;99.90
13336;DHT22;6737;51.480;11.962;2023-12-04T07:05:33;-1.40;99.90
13336;DHT22;6737;51.480;11.962;2023-12-04T07:07:59;-1.40;99.90
13336;DHT22;6737;51.480;11.962;2023-12-04T07:10:25;-1.40;99.90
13336;DHT22;6737;51.480;11.962;2023-12-04T07:12:51;-1.40;99.90
13336;DHT22;6737;51.480;11.962;2023-12-04T07:15:17;-1.30;99.90
13336;DHT22;6737;51.480;11.962;2023-12-04T07:17:43;-1.40;99.90
13336;DHT22;6737;51.480;11.962;2023-12-04T07:20:09;-1.40;99.90
13336;DHT22;6737;51.480;11.962;2023-12-04T07:22:37;-1.30;99.90
13336;DHT22;6737;51.480;11.962;2023-12-04T07:25:03;-1.30;99.90
13336;DHT22;6737;51.480;11.962;2023-12-04T07:27:29;-1.20;99.90
13336;DHT22;6737;51.480;11.962;2023-12-04T07:29:55;-1.20;99.90
13336;DHT22;6737;51.480;11.962;2023-12-04T07:32:21;-1.20;99.90
13336;DHT22;6737;51.480;11.962;2023-12-04T07:34:47;-1.20;99.90
13336;DHT22;6737;51.480;11.962;2023-12-04T07:37:12;-1.20;99.90
13336;DHT22;6737;51.480;11.962;2023-12-04T07:39:38;-1.20;99.90
13336;DHT22;6737;51.480;11.962;2023-12-04T07:42:04;-1.10;99.90
13336;DHT22;6737;51.480;11.962;2023-12-04T07:44:30;-1.20;99.90
13336;DHT22;6737;51.480;11.962;2023-12-04T07:46:56;-1.20;99.90
13336;DHT22;6737;51.480;11.962;2023-12-04T07:49:23;-1.20;99.90
13336;DHT22;6737;51.480;11.962;2023-12-04T07:51:48;-1.20;99.90
13336;DHT22;6737;51.480;11.962;2023-12-04T07:54:14;-1.20;99.90
13336;DHT22;6737;51.480;11.962;2023-12-04T07:56:40;-1.10;99.90
13336;DHT22;6737;51.480;11.962;2023-12-04T07:59:06;-1.10;99.90
13336;DHT22;6737;51.480;11.962;2023-12-04T08:01:31;-1.00;99.90
13336;DHT22;6737;51.480;11.962;2023-12-04T08:03:57;-1.00;99.90
13336;DHT22;6737;51.480;11.962;2023-12-04T08:06:23;-1.00;99.90
13336;DHT22;6737;51.480;11.962;2023-12-04T08:08:49;-1.00;99.90
13336;DHT22;6737;51.480;11.962;2023-12-04T08:11:15;-1.00;99.90
13336;DHT22;6737;51.480;11.962;2023-12-04T08:13:41;-1.00;99.90
13336;DHT22;6737;51.480;11.962;2023-12-04T08:16:13;-1.00;99.90
13336;DHT22;6737;51.480;11.962;2023-12-04T08:18:41;-1.00;99.90
13336;DHT22;6737;51.480;11.962;2023-12-04T08:21:07;-1.00;99.90
13336;DHT22;6737;51.480;11.962;2023-12-04T08:23:33;-0.90;99.90
13336;DHT22;6737;51.480;11.962;2023-12-04T08:25:59;-0.90;99.90
13336;DHT22;6737;51.480;11.962;2023-12-04T08:28:25;-0.90;99.90
13336;DHT22;6737;51.480;11.962;2023-12-04T08:30:51;-0.90;99.90
13336;DHT22;6737;51.480;11.962;2023-12-04T08:33:17;-0.90;99.90
13336;DHT22;6737;51.480;11.962;2023-12-04T08:35:46;-0.90;99.90
13336;DHT22;6737;51.480;11.962;2023-12-04T08:38:13;-0.90;99.90
13336;DHT22;6737;51.480;11.962;2023-12-04T08:40:39;-0.90;99.90
13336;DHT22;6737;51.480;11.962;2023-12-04T08:43:05;-0.90;99.90
13336;DHT22;6737;51.480;11.962;2023-12-04T08:45:31;-0.80;99.90
13336;DHT22;6737;51.480;11.962;2023-12-04T08:47:57;-0.90;99.90
13336;DHT22;6737;51.480;11.962;2023-12-04T08:50:22;-0.80;99.90
13336;DHT22;6737;51.480;11.962;2023-12-04T08:52:50;-0.80;99.90
13336;DHT22;6737;51.480;11.962;2023-12-04T08:55:17;-0.80;99.90
13336;DHT22;6737;51.480;11.962;2023-12-04T08:57:43;-0.80;99.90
13336;DHT22;6737;51.480;11.962;2023-12-04T09:00:09;-0.80;99.90
13336;DHT22;6737;51.480;11.962;2023-12-04T09:02:35;-0.80;99.90
13336;DHT22;6737;51.480;11.962;2023-12-04T09:05:02;-0.70;99.90
13336;DHT22;6737;51.480;11.962;2023-12-04T09:07:27;-0.70;99.90
13336;DHT22;6737;51.480;11.962;2023-12-04T09:09:53;-0.70;99.90
13336;DHT22;6737;51.480;11.962;2023-12-04T09:12:19;-0.60;99.90
13336;DHT22;6737;51.480;11.962;2023-12-04T09:14:45;-0.60;99.90
13336;DHT22;6737;51.480;11.962;2023-12-04T09:17:11;-0.60;99.90
13336;DHT22;6737;51.480;11.962;2023-12-04T09:19:37;-0.50;99.90
13336;DHT22;6737;51.480;11.962;2023-12-04T09:22:03;-0.50;99.90
13336;DHT22;6737;51.480;11.962;2023-12-04T09:24:30;-0.40;99.90
13336;DHT22;6737;51.480;11.962;2023-12-04T09:26:56;-0.40;99.90
13336;DHT22;6737;51.480;11.962;2023-12-04T09:29:22;-0.40;99.90
13336;DHT22;6737;51.480;11.962;2023-12-04T09:31:51;-0.40;99.90
13336;DHT22;6737;51.480;11.962;2023-12-04T09:34:17;-0.40;99.90
13336;DHT22;6737;51.480;11.962;2023-12-04T09:36:46;-0.40;99.90
13336;DHT22;6737;51.480;11.962;2023-12-04T09:39:14;-0.40;99.90
13336;DHT22;6737;51.480;11.962;2023-12-04T09:41:40;-0.40;99.90
13336;DHT22;6737;51.480;11.962;2023-12-04T09:44:08;-0.30;99.90
13336;DHT22;6737;51.480;11.962;2023-12-04T09:46:38;-0.20;99.90
13336;DHT22;6737;51.480;11.962;2023-12-04T09:49:05;-0.20;99.90
13336;DHT22;6737;51.480;11.962;2023-12-04T09:51:33;-0.20;99.90
13336;DHT22;6737;51.480;11.962;2023-12-04T09:54:02;-0.20;99.90
13336;DHT22;6737;51.480;11.962;2023-12-04T09:56:33;-0.10;99.90
13336;DHT22;6737;51.480;11.962;2023-12-04T09:59:00;-0.10;99.90
13336;DHT22;6737;51.480;11.962;2023-12-04T10:01:29;-0.10;99.90
13336;DHT22;6737;51.480;11.962;2023-12-04T10:03:58;0.00;99.90
13336;DHT22;6737;51.480;11.962;2023-12-04T10:06:27;0.00;99.90
13336;DHT22;6737;51.480;11.962;2023-12-04T10:08:55;0.10;99.90
13336;DHT22;6737;51.480;11.962;2023-12-04T10:11:24;0.10;99.90
13336;DHT22;6737;51.480;11.962;2023-12-04T10:13:54;0.10;99.90
13336;DHT22;6737;51.480;11.962;2023-12-04T10:16:34;0.20;99.90
13336;DHT22;6737;51.480;11.962;2023-12-04T10:19:22;0.20;99.90
13336;DHT22;6737;51.480;11.962;2023-12-04T10:21:52;0.30;99.90
13336;DHT22;6737;51.480;11.962;2023-12-04T10:26:57;0.30;99.90
13336;DHT22;6737;51.480;11.962;2023-12-04T10:29:24;0.30;99.90
13336;DHT22;6737;51.480;11.962;2023-12-04T10:31:52;0.30;99.90
13336;DHT22;6737;51.480;11.962;2023-12-04T10:34:20;0.40;99.90
13336;DHT22;6737;51.480;11.962;2023-12-04T10:36:47;0.40;99.90
13336;DHT22;6737;51.480;11.962;2023-12-04T10:39:13;0.40;99.90
13336;DHT22;6737;51.480;11.962;2023-12-04T10:41:39;0.50;99.90
13336;DHT22;6737;51.480;11.962;2023-12-04T10:44:05;0.50;99.90
13336;DHT22;6737;51.480;11.962;2023-12-04T10:46:32;0.50;99.90
13336;DHT22;6737;51.480;11.962;2023-12-04T10:49:01;0.50;99.90
13336;DHT22;6737;51.480;11.962;2023-12-04T10:51:28;0.60;99.90
13336;DHT22;6737;51.480;11.962;2023-12-04T10:53:54;0.60;99.90
13336;DHT22;6737;51.480;11.962;2023-12-04T10:56:30;0.60;99.90
13336;DHT22;6737;51.480;11.962;2023-12-04T10:58:58;0.60;99.90
13336;DHT22;6737;51.480;11.962;2023-12-04T11:01:25;0.70;99.90
13336;DHT22;6737;51.480;11.962;2023-12-04T11:03:53;0.70;99.90
13336;DHT22;6737;51.480;11.962;2023-12-04T11:06:22;0.70;99.90
13336;DHT22;6737;51.480;11.962;2023-12-04T11:08:49;0.70;99.90
13336;DHT22;6737;51.480;11.962;2023-12-04T11:11:25;0.80;99.90
13336;DHT22;6737;51.480;11.962;2023-12-04T11:13:55;0.80;99.90
13336;DHT22;6737;51.480;11.962;2023-12-04T11:19:00;0.90;99.90
13336;DHT22;6737;51.480;11.962;2023-12-04T11:21:29;0.90;99.90
13336;DHT22;6737;51.480;11.962;2023-12-04T11:23:56;0.90;99.90
13336;DHT22;6737;51.480;11.962;2023-12-04T11:26:24;0.90;99.90
13336;DHT22;6737;51.480;11.962;2023-12-04T11:28:52;0.90;99.90
13336;DHT22;6737;51.480;11.962;2023-12-04T11:31:18;0.90;99.90
13336;DHT22;6737;51.480;11.962;2023-12-04T11:33:44;0.90;99.90
13336;DHT22;6737;51.480;11.962;2023-12-04T11:36:12;1.00;99.90
13336;DHT22;6737;51.480;11.962;2023-12-04T11:38:46;1.00;99.90
13336;DHT22;6737;51.480;11.962;2023-12-04T11:41:16;0.90;99.90
13336;DHT22;6737;51.480;11.962;2023-12-04T11:43:45;0.90;99.90
13336;DHT22;6737;51.480;11.962;2023-12-04T11:46:11;0.80;99.90
13336;DHT22;6737;51.480;11.962;2023-12-04T11:48:38;0.80;99.90
13336;DHT22;6737;51.480;11.962;2023-12-04T11:51:06;0.80;99.90
13336;DHT22;6737;51.480;11.962;2023-12-04T11:53:38;0.80;99.90
13336;DHT22;6737;51.480;11.962;2023-12-04T11:56:11;0.80;99.90
13336;DHT22;6737;51.480;11.962;2023-12-04T11:58:44;0.80;99.90
13336;DHT22;6737;51.480;11.962;2023-12-04T12:01:11;0.70;99.90
13336;DHT22;6737;51.480;11.962;2023-12-04T12:03:37;0.70;99.90
13336;DHT22;6737;51.480;11.962;2023-12-04T12:06:04;0.80;99.90
13336;DHT22;6737;51.480;11.962;2023-12-04T12:08:30;0.80;99.90
13336;DHT22;6737;51.480;11.962;2023-12-04T12:10:57;0.80;99.90
13336;DHT22;6737;51.480;11.962;2023-12-04T12:13:23;0.80;99.90
13336;DHT22;6737;51.480;11.962;2023-12-04T12:15:52;0.70;99.90
13336;DHT22;6737;51.480;11.962;2023-12-04T12:18:18;0.70;99.90
13336;DHT22;6737;51.480;11.962;2023-12-04T12:20:44;0.70;99.90
13336;DHT22;6737;51.480;11.962;2023-12-04T12:23:10;0.70;99.90
13336;DHT22;6737;51.480;11.962;2023-12-04T12:25:36;0.70;99.90
13336;DHT22;6737;51.480;11.962;2023-12-04T12:28:02;0.60;99.90
13336;DHT22;6737;51.480;11.962;2023-12-04T12:30:29;0.60;99.90
13336;DHT22;6737;51.480;11.962;2023-12-04T12:32:55;0.60;99.90
13336;DHT22;6737;51.480;11.962;2023-12-04T12:35:20;0.60;99.90
13336;DHT22;6737;51.480;11.962;2023-12-04T12:37:46;0.60;99.90
13336;DHT22;6737;51.480;11.962;2023-12-04T12:40:12;0.50;99.90
13336;DHT22;6737;51.480;11.962;2023-12-04T12:42:39;0.60;99.90
13336;DHT22;6737;51.480;11.962;2023-12-04T12:45:09;0.60;99.90
13336;DHT22;6737;51.480;11.962;2023-12-04T12:47:37;0.50;99.90
13336;DHT22;6737;51.480;11.962;2023-12-04T12:50:08;0.60;99.90
13336;DHT22;6737;51.480;11.962;2023-12-04T12:52:37;0.60;99.90
13336;DHT22;6737;51.480;11.962;2023-12-04T12:55:03;0.50;99.90
13336;DHT22;6737;51.480;11.962;2023-12-04T12:57:30;0.50;99.90
13336;DHT22;6737;51.480;11.962;2023-12-04T12:59:57;0.60;99.90
13336;DHT22;6737;51.480;11.962;2023-12-04T13:02:22;0.50;99.90
13336;DHT22;6737;51.480;11.962;2023-12-04T13:04:48;0.50;99.90
13336;DHT22;6737;51.480;11.962;2023-12-04T13:07:16;0.50;99.90
13336;DHT22;6737;51.480;11.962;2023-12-04T13:09:44;0.50;99.90
13336;DHT22;6737;51.480;11.962;2023-12-04T13:12:10;0.50;99.90
13336;DHT22;6737;51.480;11.962;2023-12-04T13:14:36;0.50;99.90
13336;DHT22;6737;51.480;11.962;2023-12-04T13:17:02;0.50;99.90
13336;DHT22;6737;51.480;11.962;2023-12-04T13:19:29;0.50;99.90
13336;DHT22;6737;51.480;11.962;2023-12-04T13:21:57;0.50;99.90
13336;DHT22;6737;51.480;11.962;2023-12-04T13:24:23;0.40;99.90
13336;DHT22;6737;51.480;11.962;2023-12-04T13:26:49;0.50;99.90
13336;DHT22;6737;51.480;11.962;2023-12-04T13:29:15;0.50;99.90
13336;DHT22;6737;51.480;11.962;2023-12-04T13:31:44;0.40;99.90
13336;DHT22;6737;51.480;11.962;2023-12-04T13:34:12;0.50;99.90
13336;DHT22;6737;51.480;11.962;2023-12-04T13:36:38;0.50;99.90
13336;DHT22;6737;51.480;11.962;2023-12-04T13:39:03;0.50;99.90
13336;DHT22;6737;51.480;11.962;2023-12-04T13:41:46;0.50;99.90
13336;DHT22;6737;51.480;11.962;2023-12-04T13:44:30;0.50;99.90
13336;DHT22;6737;51.480;11.962;2023-12-04T13:46:56;0.50;99.90
13336;DHT22;6737;51.480;11.962;2023-12-04T13:49:22;0.50;99.90
13336;DHT22;6737;51.480;11.962;2023-12-04T13:51:49;0.50;99.90
13336;DHT22;6737;51.480;11.962;2023-12-04T13:54:15;0.50;99.90
13336;DHT22;6737;51.480;11.962;2023-12-04T13:56:51;0.50;99.90
13336;DHT22;6737;51.480;11.962;2023-12-04T13:59:20;0.50;99.90
13336;DHT22;6737;51.480;11.962;2023-12-04T14:01:48;0.50;99.90
13336;DHT22;6737;51.480;11.962;2023-12-04T14:04:18;0.50;99.90
13336;DHT22;6737;51.480;11.962;2023-12-04T14:06:44;0.50;99.90
13336;DHT22;6737;51.480;11.962;2023-12-04T14:09:11;0.60;99.90
13336;DHT22;6737;51.480;11.962;2023-12-04T14:11:43;0.50;99.90
13336;DHT22;6737;51.480;11.962;2023-12-04T14:14:13;0.50;99.90
13336;DHT22;6737;51.480;11.962;2023-12-04T14:16:39;0.50;99.90
13336;DHT22;6737;51.480;11.962;2023-12-04T14:19:06;0.50;99.90
13336;DHT22;6737;51.480;11.962;2023-12-04T14:21:32;0.50;99.90
13336;DHT22;6737;51.480;11.962;2023-12-04T14:23:58;0.40;99.90
13336;DHT22;6737;51.480;11.962;2023-12-04T14:26:24;0.40;99.90
13336;DHT22;6737;51.480;11.962;2023-12-04T14:28:50;0.40;99.90
13336;DHT22;6737;51.480;11.962;2023-12-04T14:31:16;0.40;99.90
13336;DHT22;6737;51.480;11.962;2023-12-04T14:33:41;0.40;99.90
13336;DHT22;6737;51.480;11.962;2023-12-04T14:36:08;0.40;99.90
13336;DHT22;6737;51.480;11.962;2023-12-04T14:38:34;0.50;99.90
13336;DHT22;6737;51.480;11.962;2023-12-04T14:41:01;0.50;99.90
13336;DHT22;6737;51.480;11.962;2023-12-04T14:43:27;0.50;99.90
13336;DHT22;6737;51.480;11.962;2023-12-04T14:45:52;0.50;99.90
13336;DHT22;6737;51.480;11.962;2023-12-04T14:48:18;0.40;99.90
13336;DHT22;6737;51.480;11.962;2023-12-04T14:50:44;0.40;99.90
13336;DHT22;6737;51.480;11.962;2023-12-04T14:53:11;0.40;99.90
13336;DHT22;6737;51.480;11.962;2023-12-04T14:55:55;0.40;99.90
13336;DHT22;6737;51.480;11.962;2023-12-04T14:58:39;0.40;99.90
13336;DHT22;6737;51.480;11.962;2023-12-04T15:01:12;0.40;99.90
13336;DHT22;6737;51.480;11.962;2023-12-04T15:03:57;0.40;99.90
13336;DHT22;6737;51.480;11.962;2023-12-04T15:06:41;0.40;99.90
13336;DHT22;6737;51.480;11.962;2023-12-04T15:09:25;0.40;99.90
13336;DHT22;6737;51.480;11.962;2023-12-04T15:12:09;0.40;99.90
13336;DHT22;6737;51.480;11.962;2023-12-04T15:14:55;0.30;99.90
13336;DHT22;6737;51.480;11.962;2023-12-04T15:17:37;0.40;99.90
13336;DHT22;6737;51.480;11.962;2023-12-04T15:20:38;0.40;99.90
13336;DHT22;6737;51.480;11.962;2023-12-04T15:23:06;0.40;99.90
13336;DHT22;6737;51.480;11.962;2023-12-04T15:25:32;0.40;99.90
13336;DHT22;6737;51.480;11.962;2023-12-04T15:27:58;0.40;99.90
13336;DHT22;6737;51.480;11.962;2023-12-04T15:30:27;0.40;99.90
13336;DHT22;6737;51.480;11.962;2023-12-04T15:32:55;0.40;99.90
13336;DHT22;6737;51.480;11.962;2023-12-04T15:35:21;0.30;99.90
13336;DHT22;6737;51.480;11.962;2023-12-04T15:37:47;0.40;99.90
13336;DHT22;6737;51.480;11.962;2023-12-04T15:40:13;0.40;99.90